sensor_id;sensor_type;location;lat;lon;timestamp;pressure;altitude;pressure_sealevel;temperature;humidity
55418;BME280;41287;47.554;7.844;2023-05-23T00:02:08;97850.06;;;19.52;60.56
55418;BME280;41287;47.554;7.844;2023-05-23T00:04:34;97846.22;;;19.53;60.34
55418;BME280;41287;47.554;7.844;2023-05-23T00:07:01;97848.94;;;19.53;60.45
55418;BME280;41287;47.554;7.844;2023-05-23T00:09:27;97841.16;;;19.51;60.42
55418;BME280;41287;47.554;7.844;2023-05-23T00:11:52;97847.34;;;19.52;60.43
55418;BME280;41287;47.554;7.844;2023-05-23T00:14:17;97848.50;;;19.51;60.44
55418;BME280;41287;47.554;7.844;2023-05-23T00:16:44;97850.84;;;19.52;60.46
55418;BME280;41287;47.554;7.844;2023-05-23T00:19:11;97847.00;;;19.53;60.45
55418;BME280;41287;47.554;7.844;2023-05-23T00:21:39;97851.66;;;19.53;60.47
55418;BME280;41287;47.554;7.844;2023-05-23T00:24:07;97852.44;;;19.53;60.34
55418;BME280;41287;47.554;7.844;2023-05-23T00:26:34;97846.22;;;19.53;60.39
55418;BME280;41287;47.554;7.844;2023-05-23T00:28:59;97847.00;;;19.53;60.46
55418;BME280;41287;47.554;7.844;2023-05-23T00:31:24;97849.72;;;19.53;60.45
55418;BME280;41287;47.554;7.844;2023-05-23T00:33:50;97848.94;;;19.53;60.35
55418;BME280;41287;47.554;7.844;2023-05-23T00:36:15;97848.94;;;19.53;60.40
55418;BME280;41287;47.554;7.844;2023-05-23T00:38:41;97852.44;;;19.53;60.36
55418;BME280;41287;47.554;7.844;2023-05-23T00:41:07;97855.16;;;19.53;60.35
55418;BME280;41287;47.554;7.844;2023-05-23T00:43:32;97855.94;;;19.54;60.24
55418;BME280;41287;47.554;7.844;2023-05-23T00:45:57;97852.44;;;19.53;60.42
55418;BME280;41287;47.554;7.844;2023-05-23T00:48:24;97842.69;;;19.52;60.40
55418;BME280;41287;47.554;7.844;2023-05-23T00:50:50;97841.56;;;19.53;60.42
55418;BME280;41287;47.554;7.844;2023-05-23T00:53:16;97844.28;;;19.53;60.42
55418;BME280;41287;47.554;7.844;2023-05-23T00:55:43;97845.06;;;19.54;60.40
55418;BME280;41287;47.554;7.844;2023-05-23T00:58:11;97830.69;;;19.53;60.42
55418;BME280;41287;47.554;7.844;2023-05-23T01:00:37;97833.41;;;19.53;60.35
55418;BME280;41287;47.554;7.844;2023-05-23T01:03:03;97836.13;;;19.53;60.32
55418;BME280;41287;47.554;7.844;2023-05-23T01:05:29;97834.22;;;19.54;60.42
55418;BME280;41287;47.554;7.844;2023-05-23T01:07:54;97835.00;;;19.54;60.50
55418;BME280;41287;47.554;7.844;2023-05-23T01:10:25;97832.63;;;19.53;60.35
55418;BME280;41287;47.554;7.844;2023-05-23T01:13:03;97844.28;;;19.53;60.36
55418;BME280;41287;47.554;7.844;2023-05-23T01:15:37;97849.72;;;19.53;60.43
55418;BME280;41287;47.554;7.844;2023-05-23T01:18:13;97850.84;;;19.52;60.33
55418;BME280;41287;47.554;7.844;2023-05-23T01:20:48;97853.22;;;19.54;60.33
55418;BME280;41287;47.554;7.844;2023-05-23T01:26:56;97843.06;;;19.51;60.23
55418;BME280;41287;47.554;7.844;2023-05-23T01:29:31;97851.66;;;19.53;60.27
55418;BME280;41287;47.554;7.844;2023-05-23T01:31:58;97852.91;;;19.55;60.23
55418;BME280;41287;47.554;7.844;2023-05-23T01:34:25;97855.16;;;19.53;60.46
55418;BME280;41287;47.554;7.844;2023-05-23T01:36:53;97862.19;;;19.54;60.49
55418;BME280;41287;47.554;7.844;2023-05-23T01:39:20;97858.66;;;19.54;60.27
55418;BME280;41287;47.554;7.844;2023-05-23T01:41:48;97857.53;;;19.55;60.31
55418;BME280;41287;47.554;7.844;2023-05-23T01:44:15;97855.94;;;19.54;60.35
55418;BME280;41287;47.554;7.844;2023-05-23T01:46:41;97854.81;;;19.55;60.30
55418;BME280;41287;47.554;7.844;2023-05-23T01:49:10;97864.09;;;19.54;60.35
55418;BME280;41287;47.554;7.844;2023-05-23T01:51:37;97855.16;;;19.53;60.24
55418;BME280;41287;47.554;7.844;2023-05-23T01:54:03;97857.53;;;19.55;60.34
55418;BME280;41287;47.554;7.844;2023-05-23T01:56:28;97854.03;;;19.54;60.32
55418;BME280;41287;47.554;7.844;2023-05-23T01:58:54;97856.75;;;19.54;60.31
55418;BME280;41287;47.554;7.844;2023-05-23T02:01:19;97856.75;;;19.54;60.33
55418;BME280;41287;47.554;7.844;2023-05-23T02:03:45;97865.69;;;19.55;60.27
55418;BME280;41287;47.554;7.844;2023-05-23T02:06:10;97857.53;;;19.55;60.36
55418;BME280;41287;47.554;7.844;2023-05-23T02:08:36;97852.09;;;19.55;60.38
55418;BME280;41287;47.554;7.844;2023-05-23T02:11:01;97859.13;;;19.56;60.24
55418;BME280;41287;47.554;7.844;2023-05-23T02:13:27;97858.31;;;19.55;60.38
55418;BME280;41287;47.554;7.844;2023-05-23T02:15:54;97860.25;;;19.55;60.39
55418;BME280;41287;47.554;7.844;2023-05-23T02:18:22;97852.91;;;19.55;60.26
55418;BME280;41287;47.554;7.844;2023-05-23T02:20:50;97869.19;;;19.55;60.19
55418;BME280;41287;47.554;7.844;2023-05-23T02:23:15;97862.97;;;19.55;60.33
55418;BME280;41287;47.554;7.844;2023-05-23T02:25:40;97871.13;;;19.55;60.27
55418;BME280;41287;47.554;7.844;2023-05-23T02:28:08;97871.91;;;19.55;60.22
55418;BME280;41287;47.554;7.844;2023-05-23T02:30:35;97875.44;;;19.56;60.36
55418;BME280;41287;47.554;7.844;2023-05-23T02:33:04;97877.34;;;19.55;60.30
55418;BME280;41287;47.554;7.844;2023-05-23T02:35:30;97882.78;;;19.55;60.30
55418;BME280;41287;47.554;7.844;2023-05-23T02:37:55;97889.00;;;19.56;60.39
55418;BME280;41287;47.554;7.844;2023-05-23T02:40:21;97886.31;;;19.56;60.32
55418;BME280;41287;47.554;7.844;2023-05-23T02:42:46;97886.31;;;19.56;60.48
55418;BME280;41287;47.554;7.844;2023-05-23T02:45:12;97886.31;;;19.56;60.18
55418;BME280;41287;47.554;7.844;2023-05-23T02:47:37;97889.00;;;19.56;60.29
55418;BME280;41287;47.554;7.844;2023-05-23T02:50:02;97890.94;;;19.55;60.22
55418;BME280;41287;47.554;7.844;2023-05-23T02:52:29;97885.50;;;19.55;60.23
55418;BME280;41287;47.554;7.844;2023-05-23T02:54:54;97888.69;;;19.57;60.38
55418;BME280;41287;47.554;7.844;2023-05-23T02:57:19;97888.22;;;19.55;60.36
55418;BME280;41287;47.554;7.844;2023-05-23T02:59:45;97886.31;;;19.56;60.36
55418;BME280;41287;47.554;7.844;2023-05-23T03:02:12;97891.72;;;19.56;60.53
55418;BME280;41287;47.554;7.844;2023-05-23T03:04:40;97889.81;;;19.56;60.28
55418;BME280;41287;47.554;7.844;2023-05-23T03:07:05;97886.31;;;19.56;60.30
55418;BME280;41287;47.554;7.844;2023-05-23T03:09:31;97886.31;;;19.56;60.32
55418;BME280;41287;47.554;7.844;2023-05-23T03:11:58;97883.59;;;19.56;60.30
55418;BME280;41287;47.554;7.844;2023-05-23T03:14:23;97889.81;;;19.56;60.36
55418;BME280;41287;47.554;7.844;2023-05-23T03:16:48;97889.00;;;19.56;60.30
55418;BME280;41287;47.554;7.844;2023-05-23T03:19:14;97887.88;;;19.57;60.28
55418;BME280;41287;47.554;7.844;2023-05-23T03:21:39;97894.13;;;19.57;60.31
55418;BME280;41287;47.554;7.844;2023-05-23T03:24:05;97887.88;;;19.57;60.22
55418;BME280;41287;47.554;7.844;2023-05-23T03:26:31;97887.09;;;19.56;60.29
55418;BME280;41287;47.554;7.844;2023-05-23T03:28:56;97887.09;;;19.56;60.07
55418;BME280;41287;47.554;7.844;2023-05-23T03:31:22;97899.88;;;19.56;60.23
55418;BME280;41287;47.554;7.844;2023-05-23T03:33:49;97894.44;;;19.56;60.44
55418;BME280;41287;47.554;7.844;2023-05-23T03:36:14;97892.53;;;19.56;60.19
55418;BME280;41287;47.554;7.844;2023-05-23T03:38:40;97891.72;;;19.56;60.28
55418;BME280;41287;47.554;7.844;2023-05-23T03:41:06;97897.16;;;19.56;60.28
55418;BME280;41287;47.554;7.844;2023-05-23T03:43:31;97897.16;;;19.56;60.26
55418;BME280;41287;47.554;7.844;2023-05-23T03:45:57;97901.81;;;19.55;60.10
55418;BME280;41287;47.554;7.844;2023-05-23T03:48:23;97899.56;;;19.57;60.31
55418;BME280;41287;47.554;7.844;2023-05-23T03:50:48;97901.47;;;19.57;60.31
55418;BME280;41287;47.554;7.844;2023-05-23T03:53:13;97907.72;;;19.57;60.39
55418;BME280;41287;47.554;7.844;2023-05-23T03:55:39;97909.63;;;19.57;60.18
55418;BME280;41287;47.554;7.844;2023-05-23T03:58:04;97907.72;;;19.57;60.29
55418;BME280;41287;47.554;7.844;2023-05-23T04:00:30;97910.44;;;19.57;60.31
55418;BME280;41287;47.554;7.844;2023-05-23T04:02:55;97915.06;;;19.57;60.20
55418;BME280;41287;47.554;7.844;2023-05-23T04:05:21;97921.28;;;19.57;60.71
55418;BME280;41287;47.554;7.844;2023-05-23T04:07:46;97923.22;;;19.57;60.29
55418;BME280;41287;47.554;7.844;2023-05-23T04:10:12;97924.81;;;19.58;60.21
55418;BME280;41287;47.554;7.844;2023-05-23T04:12:37;97925.94;;;19.57;60.23
55418;BME280;41287;47.554;7.844;2023-05-23T04:15:06;97934.09;;;19.57;60.17
55418;BME280;41287;47.554;7.844;2023-05-23T04:17:33;97929.44;;;19.57;60.35
55418;BME280;41287;47.554;7.844;2023-05-23T04:19:59;97934.88;;;19.57;60.28
55418;BME280;41287;47.554;7.844;2023-05-23T04:22:24;97934.09;;;19.57;60.29
55418;BME280;41287;47.554;7.844;2023-05-23T04:24:50;97937.59;;;19.57;60.30
55418;BME280;41287;47.554;7.844;2023-05-23T04:27:15;97942.25;;;19.57;60.10
55418;BME280;41287;47.554;7.844;2023-05-23T04:29:42;97940.31;;;19.57;60.02
55418;BME280;41287;47.554;7.844;2023-05-23T04:32:10;97930.91;;;19.55;60.14
55418;BME280;41287;47.554;7.844;2023-05-23T04:34:38;97938.72;;;19.56;60.36
55418;BME280;41287;47.554;7.844;2023-05-23T04:37:05;97938.72;;;19.56;60.26
55418;BME280;41287;47.554;7.844;2023-05-23T04:39:31;97935.22;;;19.56;60.39
55418;BME280;41287;47.554;7.844;2023-05-23T04:41:56;97937.16;;;19.55;60.56
55418;BME280;41287;47.554;7.844;2023-05-23T04:44:22;97930.56;;;19.56;60.77
55418;BME280;41287;47.554;7.844;2023-05-23T04:46:48;97940.66;;;19.56;60.79
55418;BME280;41287;47.554;7.844;2023-05-23T04:49:14;97935.22;;;19.56;60.83
55418;BME280;41287;47.554;7.844;2023-05-23T04:51:40;97929.78;;;19.56;60.76
55418;BME280;41287;47.554;7.844;2023-05-23T04:54:06;97936.34;;;19.55;60.78
55418;BME280;41287;47.554;7.844;2023-05-23T04:56:33;97937.94;;;19.56;60.90
55418;BME280;41287;47.554;7.844;2023-05-23T04:58:58;97934.44;;;19.55;60.81
55418;BME280;41287;47.554;7.844;2023-05-23T05:01:24;97936.00;;;19.56;60.75
55418;BME280;41287;47.554;7.844;2023-05-23T05:03:50;97941.44;;;19.56;60.88
55418;BME280;41287;47.554;7.844;2023-05-23T05:06:17;97947.22;;;19.55;61.07
55418;BME280;41287;47.554;7.844;2023-05-23T05:08:43;97949.94;;;19.55;61.21
55418;BME280;41287;47.554;7.844;2023-05-23T05:11:09;97951.53;;;19.56;60.99
55418;BME280;41287;47.554;7.844;2023-05-23T05:13:34;97949.16;;;19.54;60.91
55418;BME280;41287;47.554;7.844;2023-05-23T05:16:00;97951.84;;;19.54;61.28
55418;BME280;41287;47.554;7.844;2023-05-23T05:18:26;97958.09;;;19.55;61.36
55418;BME280;41287;47.554;7.844;2023-05-23T05:20:51;97956.97;;;19.56;61.14
55418;BME280;41287;47.554;7.844;2023-05-23T05:23:17;97958.09;;;19.55;61.06
55418;BME280;41287;47.554;7.844;2023-05-23T05:25:42;97947.22;;;19.55;61.14
55418;BME280;41287;47.554;7.844;2023-05-23T05:28:08;97952.66;;;19.55;61.17
55418;BME280;41287;47.554;7.844;2023-05-23T05:30:33;97953.44;;;19.55;61.08
55418;BME280;41287;47.554;7.844;2023-05-23T05:33:03;97954.25;;;19.56;61.05
55418;BME280;41287;47.554;7.844;2023-05-23T05:35:35;97954.56;;;19.54;61.29
55418;BME280;41287;47.554;7.844;2023-05-23T05:38:02;97955.38;;;19.55;61.20
55418;BME280;41287;47.554;7.844;2023-05-23T05:40:29;97951.53;;;19.56;61.19
55418;BME280;41287;47.554;7.844;2023-05-23T05:42:56;97948.00;;;19.55;60.99
55418;BME280;41287;47.554;7.844;2023-05-23T05:45:22;97953.44;;;19.55;61.10
55418;BME280;41287;47.554;7.844;2023-05-23T05:47:47;97962.72;;;19.54;61.11
55418;BME280;41287;47.554;7.844;2023-05-23T05:50:13;97962.72;;;19.54;61.05
55418;BME280;41287;47.554;7.844;2023-05-23T05:52:40;97962.41;;;19.56;60.91
55418;BME280;41287;47.554;7.844;2023-05-23T05:55:07;97961.59;;;19.55;61.14
55418;BME280;41287;47.554;7.844;2023-05-23T05:57:33;97967.03;;;19.55;60.97
55418;BME280;41287;47.554;7.844;2023-05-23T05:59:58;97973.59;;;19.54;61.03
55418;BME280;41287;47.554;7.844;2023-05-23T06:02:23;97968.16;;;19.54;61.13
55418;BME280;41287;47.554;7.844;2023-05-23T06:04:49;97970.88;;;19.54;61.01
55418;BME280;41287;47.554;7.844;2023-05-23T06:07:14;97963.53;;;19.55;60.98
55418;BME280;41287;47.554;7.844;2023-05-23T06:09:39;97967.38;;;19.54;61.14
55418;BME280;41287;47.554;7.844;2023-05-23T06:12:05;97967.38;;;19.54;61.15
55418;BME280;41287;47.554;7.844;2023-05-23T06:14:30;97966.25;;;19.55;61.17
55418;BME280;41287;47.554;7.844;2023-05-23T06:16:56;97970.88;;;19.54;61.08
55418;BME280;41287;47.554;7.844;2023-05-23T06:19:21;97967.38;;;19.54;61.04
55418;BME280;41287;47.554;7.844;2023-05-23T06:21:49;97976.31;;;19.54;61.07
55418;BME280;41287;47.554;7.844;2023-05-23T06:24:18;97972.81;;;19.54;61.16
55418;BME280;41287;47.554;7.844;2023-05-23T06:26:43;97975.53;;;19.54;61.14
55418;BME280;41287;47.554;7.844;2023-05-23T06:29:10;97976.31;;;19.54;61.28
55418;BME280;41287;47.554;7.844;2023-05-23T06:31:37;97972.81;;;19.54;61.19
55418;BME280;41287;47.554;7.844;2023-05-23T06:34:02;97976.31;;;19.54;61.16
55418;BME280;41287;47.554;7.844;2023-05-23T06:36:28;97979.03;;;19.54;61.25
55418;BME280;41287;47.554;7.844;2023-05-23T06:38:53;97971.22;;;19.53;61.14
55418;BME280;41287;47.554;7.844;2023-05-23T06:41:18;97975.53;;;19.54;61.20
55418;BME280;41287;47.554;7.844;2023-05-23T06:43:44;97979.03;;;19.54;61.13
55418;BME280;41287;47.554;7.844;2023-05-23T06:46:09;97985.59;;;19.53;61.17
55418;BME280;41287;47.554;7.844;2023-05-23T06:48:36;97985.59;;;19.53;61.17
55418;BME280;41287;47.554;7.844;2023-05-23T06:51:03;97983.69;;;19.54;61.27
55418;BME280;41287;47.554;7.844;2023-05-23T06:53:30;97988.00;;;19.55;61.32
55418;BME280;41287;47.554;7.844;2023-05-23T06:55:55;97975.53;;;19.54;61.23
55418;BME280;41287;47.554;7.844;2023-05-23T06:58:21;97989.13;;;19.54;61.24
55418;BME280;41287;47.554;7.844;2023-05-23T07:00:46;97982.88;;;19.53;61.09
55418;BME280;41287;47.554;7.844;2023-05-23T07:03:11;97980.16;;;19.53;61.22
55418;BME280;41287;47.554;7.844;2023-05-23T07:05:37;97984.81;;;19.53;61.15
55418;BME280;41287;47.554;7.844;2023-05-23T07:08:02;97985.59;;;19.53;61.20
55418;BME280;41287;47.554;7.844;2023-05-23T07:10:28;97993.75;;;19.53;61.07
55418;BME280;41287;47.554;7.844;2023-05-23T07:12:53;97991.03;;;19.53;61.21
55418;BME280;41287;47.554;7.844;2023-05-23T07:15:19;97997.28;;;19.54;61.17
55418;BME280;41287;47.554;7.844;2023-05-23T07:17:44;97996.47;;;19.53;61.14
55418;BME280;41287;47.554;7.844;2023-05-23T07:20:10;97995.34;;;19.54;61.20
55418;BME280;41287;47.554;7.844;2023-05-23T07:22:35;97996.47;;;19.53;61.19
55418;BME280;41287;47.554;7.844;2023-05-23T07:25:01;97988.66;;;19.52;61.08
55418;BME280;41287;47.554;7.844;2023-05-23T07:27:28;97995.69;;;19.53;61.19
55418;BME280;41287;47.554;7.844;2023-05-23T07:29:53;97997.59;;;19.52;61.17
55418;BME280;41287;47.554;7.844;2023-05-23T07:32:19;97998.41;;;19.53;61.20
55418;BME280;41287;47.554;7.844;2023-05-23T07:34:44;97997.59;;;19.52;61.17
55418;BME280;41287;47.554;7.844;2023-05-23T07:37:09;98003.84;;;19.53;61.01
55418;BME280;41287;47.554;7.844;2023-05-23T07:39:37;97995.69;;;19.53;61.19
55418;BME280;41287;47.554;7.844;2023-05-23T07:42:02;97993.75;;;19.53;61.13
55418;BME280;41287;47.554;7.844;2023-05-23T07:44:28;97994.56;;;19.54;61.19
55418;BME280;41287;47.554;7.844;2023-05-23T07:46:53;97995.69;;;19.53;61.24
55418;BME280;41287;47.554;7.844;2023-05-23T07:49:19;98001.13;;;19.53;61.24
55418;BME280;41287;47.554;7.844;2023-05-23T07:51:46;97996.47;;;19.53;61.14
55418;BME280;41287;47.554;7.844;2023-05-23T07:54:11;98000.00;;;19.54;61.15
55418;BME280;41287;47.554;7.844;2023-05-23T07:56:37;97998.75;;;19.51;61.14
55418;BME280;41287;47.554;7.844;2023-05-23T07:59:03;97991.38;;;19.52;61.13
55418;BME280;41287;47.554;7.844;2023-05-23T08:01:28;97997.59;;;19.52;61.22
55418;BME280;41287;47.554;7.844;2023-05-23T08:03:54;98003.84;;;19.53;61.17
55418;BME280;41287;47.554;7.844;2023-05-23T08:06:19;98006.56;;;19.53;61.21
55418;BME280;41287;47.554;7.844;2023-05-23T08:08:44;97994.88;;;19.52;61.18
55418;BME280;41287;47.554;7.844;2023-05-23T08:11:10;97999.53;;;19.52;61.23
55418;BME280;41287;47.554;7.844;2023-05-23T08:13:35;97991.38;;;19.52;61.24
55418;BME280;41287;47.554;7.844;2023-05-23T08:16:02;97994.88;;;19.52;61.18
55418;BME280;41287;47.554;7.844;2023-05-23T08:18:29;97998.41;;;19.53;61.14
55418;BME280;41287;47.554;7.844;2023-05-23T08:20:55;97993.31;;;19.51;61.29
55418;BME280;41287;47.554;7.844;2023-05-23T08:23:20;97987.88;;;19.51;61.24
55418;BME280;41287;47.554;7.844;2023-05-23T08:25:45;97993.31;;;19.51;61.26
55418;BME280;41287;47.554;7.844;2023-05-23T08:28:12;97998.75;;;19.51;61.22
55418;BME280;41287;47.554;7.844;2023-05-23T08:30:39;97999.53;;;19.52;61.23
55418;BME280;41287;47.554;7.844;2023-05-23T08:33:06;98001.47;;;19.51;60.95
55418;BME280;41287;47.554;7.844;2023-05-23T08:35:31;98004.19;;;19.51;61.25
55418;BME280;41287;47.554;7.844;2023-05-23T08:38:02;97999.53;;;19.52;61.17
55418;BME280;41287;47.554;7.844;2023-05-23T08:40:30;98001.47;;;19.51;61.24
55418;BME280;41287;47.554;7.844;2023-05-23T08:42:55;97999.91;;;19.50;61.31
55418;BME280;41287;47.554;7.844;2023-05-23T08:45:21;97999.53;;;19.52;61.17
55418;BME280;41287;47.554;7.844;2023-05-23T08:47:46;97996.03;;;19.51;61.24
55418;BME280;41287;47.554;7.844;2023-05-23T08:50:15;98003.41;;;19.51;61.05
55418;BME280;41287;47.554;7.844;2023-05-23T08:52:55;97998.41;;;19.53;61.17
55418;BME280;41287;47.554;7.844;2023-05-23T08:55:23;98001.47;;;19.51;61.29
55418;BME280;41287;47.554;7.844;2023-05-23T08:57:52;97997.97;;;19.51;61.16
55418;BME280;41287;47.554;7.844;2023-05-23T09:00:18;97996.03;;;19.51;61.39
55418;BME280;41287;47.554;7.844;2023-05-23T09:02:44;98009.63;;;19.51;61.16
55418;BME280;41287;47.554;7.844;2023-05-23T09:05:10;98003.41;;;19.51;61.18
55418;BME280;41287;47.554;7.844;2023-05-23T09:07:36;98000.69;;;19.51;61.17
55418;BME280;41287;47.554;7.844;2023-05-23T09:10:03;98001.47;;;19.51;61.21
55418;BME280;41287;47.554;7.844;2023-05-23T09:12:29;98008.03;;;19.50;61.18
55418;BME280;41287;47.554;7.844;2023-05-23T09:14:54;98008.03;;;19.50;61.17
55418;BME280;41287;47.554;7.844;2023-05-23T09:17:22;98006.13;;;19.51;61.14
55418;BME280;41287;47.554;7.844;2023-05-23T09:19:47;98004.19;;;19.51;61.13
55418;BME280;41287;47.554;7.844;2023-05-23T09:22:13;97999.91;;;19.50;61.23
55418;BME280;41287;47.554;7.844;2023-05-23T09:24:38;97994.47;;;19.50;61.29
55418;BME280;41287;47.554;7.844;2023-05-23T09:27:06;97997.19;;;19.50;61.22
55418;BME280;41287;47.554;7.844;2023-05-23T09:29:31;97997.97;;;19.51;61.13
55418;BME280;41287;47.554;7.844;2023-05-23T09:32:13;97991.28;;;19.48;61.13
55418;BME280;41287;47.554;7.844;2023-05-23T09:34:59;97996.03;;;19.51;61.03
55418;BME280;41287;47.554;7.844;2023-05-23T09:37:44;97992.06;;;19.49;61.30
55418;BME280;41287;47.554;7.844;2023-05-23T09:40:13;97987.44;;;19.49;61.03
55418;BME280;41287;47.554;7.844;2023-05-23T09:42:46;97991.75;;;19.50;61.07
55418;BME280;41287;47.554;7.844;2023-05-23T09:45:12;97988.22;;;19.50;61.11
55418;BME280;41287;47.554;7.844;2023-05-23T09:47:38;97989.03;;;19.50;61.21
55418;BME280;41287;47.554;7.844;2023-05-23T09:50:06;97987.44;;;19.49;61.06
55418;BME280;41287;47.554;7.844;2023-05-23T09:52:35;97987.44;;;19.49;61.20
55418;BME280;41287;47.554;7.844;2023-05-23T09:55:02;97985.19;;;19.51;61.11
55418;BME280;41287;47.554;7.844;2023-05-23T09:57:29;97987.09;;;19.51;61.08
55418;BME280;41287;47.554;7.844;2023-05-23T09:59:59;97982.78;;;19.50;61.12
55418;BME280;41287;47.554;7.844;2023-05-23T10:02:52;97974.19;;;19.48;61.09
55418;BME280;41287;47.554;7.844;2023-05-23T10:07:57;97967.63;;;19.49;58.44
55418;BME280;41287;47.554;7.844;2023-05-23T10:10:25;97976.09;;;19.47;57.62
55418;BME280;41287;47.554;7.844;2023-05-23T10:12:54;97973.69;;;19.46;57.34
55418;BME280;41287;47.554;7.844;2023-05-23T10:15:25;97972.13;;;19.45;57.18
55418;BME280;41287;47.554;7.844;2023-05-23T10:18:06;97975.97;;;19.44;57.27
55418;BME280;41287;47.554;7.844;2023-05-23T10:20:38;97977.09;;;19.43;57.28
55418;BME280;41287;47.554;7.844;2023-05-23T10:23:04;97987.97;;;19.43;57.32
55418;BME280;41287;47.554;7.844;2023-05-23T10:25:30;97979.03;;;19.42;57.20
55418;BME280;41287;47.554;7.844;2023-05-23T10:27:58;97977.44;;;19.41;57.13
55418;BME280;41287;47.554;7.844;2023-05-23T10:30:25;97975.84;;;19.40;57.14
55418;BME280;41287;47.554;7.844;2023-05-23T10:32:51;97976.97;;;19.39;57.28
55418;BME280;41287;47.554;7.844;2023-05-23T10:35:46;97979.28;;;19.37;57.21
55418;BME280;41287;47.554;7.844;2023-05-23T10:38:27;97973.84;;;19.37;57.18
55418;BME280;41287;47.554;7.844;2023-05-23T10:41:08;97972.25;;;19.36;57.09
55418;BME280;41287;47.554;7.844;2023-05-23T10:44:08;97970.66;;;19.35;57.28
55418;BME280;41287;47.554;7.844;2023-05-23T10:46:50;97961.72;;;19.34;56.94
55418;BME280;41287;47.554;7.844;2023-05-23T10:49:19;97959.44;;;19.37;57.12
55418;BME280;41287;47.554;7.844;2023-05-23T10:51:49;97954.34;;;19.35;57.10
55418;BME280;41287;47.554;7.844;2023-05-23T10:54:18;97952.44;;;19.36;57.11
55418;BME280;41287;47.554;7.844;2023-05-23T10:56:47;97952.44;;;19.36;57.12
55418;BME280;41287;47.554;7.844;2023-05-23T10:59:27;97946.19;;;19.35;57.09
55418;BME280;41287;47.554;7.844;2023-05-23T11:01:54;97945.41;;;19.34;57.17
55418;BME280;41287;47.554;7.844;2023-05-23T11:04:27;97949.59;;;19.32;57.11
55418;BME280;41287;47.554;7.844;2023-05-23T11:06:54;97937.25;;;19.34;57.21
55418;BME280;41287;47.554;7.844;2023-05-23T11:09:20;97949.25;;;19.33;57.18
55418;BME280;41287;47.554;7.844;2023-05-23T11:12:05;97941.00;;;19.30;57.30
55418;BME280;41287;47.554;7.844;2023-05-23T11:16:59;97940.31;;;19.33;57.14
55418;BME280;41287;47.554;7.844;2023-05-23T11:19:26;97950.38;;;19.32;57.12
55418;BME280;41287;47.554;7.844;2023-05-23T11:22:08;97944.84;;;19.29;57.18
55418;BME280;41287;47.554;7.844;2023-05-23T11:24:46;97935.56;;;19.30;57.17
55418;BME280;41287;47.554;7.844;2023-05-23T11:27:13;97941.44;;;19.32;57.12
55418;BME280;41287;47.554;7.844;2023-05-23T11:29:41;97951.50;;;19.31;57.33
55418;BME280;41287;47.554;7.844;2023-05-23T11:32:10;97951.88;;;19.30;57.20
55418;BME280;41287;47.554;7.844;2023-05-23T11:34:38;97944.53;;;19.30;57.25
55418;BME280;41287;47.554;7.844;2023-05-23T11:37:04;97941.00;;;19.30;57.06
55418;BME280;41287;47.554;7.844;2023-05-23T11:39:29;97936.72;;;19.29;57.28
55418;BME280;41287;47.554;7.844;2023-05-23T11:42:03;97944.41;;;19.27;57.24
55418;BME280;41287;47.554;7.844;2023-05-23T11:44:28;97935.13;;;19.28;57.22
55418;BME280;41287;47.554;7.844;2023-05-23T11:47:01;97938.97;;;19.27;57.29
55418;BME280;41287;47.554;7.844;2023-05-23T11:49:31;97932.41;;;19.28;57.30
55418;BME280;41287;47.554;7.844;2023-05-23T11:51:57;97937.84;;;19.28;57.17
55418;BME280;41287;47.554;7.844;2023-05-23T11:54:25;97947.91;;;19.27;57.33
55418;BME280;41287;47.554;7.844;2023-05-23T11:56:51;97949.81;;;19.27;57.18
55418;BME280;41287;47.554;7.844;2023-05-23T11:59:16;97960.69;;;19.27;57.41
55418;BME280;41287;47.554;7.844;2023-05-23T12:01:42;97959.91;;;19.26;57.31
55418;BME280;41287;47.554;7.844;2023-05-23T12:04:13;97962.94;;;19.25;57.27
55418;BME280;41287;47.554;7.844;2023-05-23T12:06:39;97960.69;;;19.27;57.22
55418;BME280;41287;47.554;7.844;2023-05-23T12:09:05;97969.63;;;19.27;57.33
55418;BME280;41287;47.554;7.844;2023-05-23T12:11:32;97961.81;;;19.26;57.38
55418;BME280;41287;47.554;7.844;2023-05-23T12:13:57;97959.09;;;19.26;57.33
55418;BME280;41287;47.554;7.844;2023-05-23T12:16:27;97959.09;;;19.26;57.17
55418;BME280;41287;47.554;7.844;2023-05-23T12:18:52;97955.59;;;19.25;57.32
55418;BME280;41287;47.554;7.844;2023-05-23T12:21:23;97951.28;;;19.24;57.31
55418;BME280;41287;47.554;7.844;2023-05-23T12:23:49;97938.50;;;19.25;57.42
55418;BME280;41287;47.554;7.844;2023-05-23T12:26:15;97941.22;;;19.25;57.42
55418;BME280;41287;47.554;7.844;2023-05-23T12:28:42;97941.22;;;19.25;57.24
55418;BME280;41287;47.554;7.844;2023-05-23T12:33:43;97922.91;;;19.22;57.24
55418;BME280;41287;47.554;7.844;2023-05-23T12:36:20;97924.03;;;19.21;57.25
55418;BME280;41287;47.554;7.844;2023-05-23T12:38:47;97920.66;;;19.24;57.27
55418;BME280;41287;47.554;7.844;2023-05-23T12:41:17;97914.75;;;19.22;57.20
55418;BME280;41287;47.554;7.844;2023-05-23T12:43:52;97911.25;;;19.21;57.45
55418;BME280;41287;47.554;7.844;2023-05-23T12:46:24;97923.38;;;19.24;57.15
55418;BME280;41287;47.554;7.844;2023-05-23T12:48:50;97927.22;;;19.23;57.35
55418;BME280;41287;47.554;7.844;2023-05-23T12:51:16;97922.56;;;19.23;57.39
55418;BME280;41287;47.554;7.844;2023-05-23T12:53:43;97916.34;;;19.23;57.30
55418;BME280;41287;47.554;7.844;2023-05-23T12:56:09;97922.56;;;19.23;57.30
55418;BME280;41287;47.554;7.844;2023-05-23T12:58:35;97910.91;;;19.23;57.50
55418;BME280;41287;47.554;7.844;2023-05-23T13:01:01;97906.59;;;19.22;57.39
55418;BME280;41287;47.554;7.844;2023-05-23T13:03:29;97899.59;;;19.21;57.37
55418;BME280;41287;47.554;7.844;2023-05-23T13:05:56;97900.38;;;19.21;57.38
55418;BME280;41287;47.554;7.844;2023-05-23T13:08:22;97903.09;;;19.21;57.32
55418;BME280;41287;47.554;7.844;2023-05-23T13:10:47;97900.38;;;19.21;57.37
55418;BME280;41287;47.554;7.844;2023-05-23T13:13:13;97896.06;;;19.20;57.40